sensor_id;sensor_type;location;lat;lon;timestamp;temperature;humidity
56268;DHT22;42175;46.930;9.532;2023-04-10T00:01:08;22.30;36.30
56268;DHT22;42175;46.930;9.532;2023-04-10T00:03:34;22.30;36.30
56268;DHT22;42175;46.930;9.532;2023-04-10T00:05:59;22.40;36.30
56268;DHT22;42175;46.930;9.532;2023-04-10T00:08:25;22.30;36.30
56268;DHT22;42175;46.930;9.532;2023-04-10T00:10:51;22.30;36.30
56268;DHT22;42175;46.930;9.532;2023-04-10T00:13:20;22.30;36.30
56268;DHT22;42175;46.930;9.532;2023-04-10T00:15:46;22.30;36.30
56268;DHT22;42175;46.930;9.532;2023-04-10T00:18:12;22.30;36.30
56268;DHT22;42175;46.930;9.532;2023-04-10T00:20:38;22.40;36.40
56268;DHT22;42175;46.930;9.532;2023-04-10T00:23:04;22.30;36.30
56268;DHT22;42175;46.930;9.532;2023-04-10T00:25:30;22.30;36.20
56268;DHT22;42175;46.930;9.532;2023-04-10T00:27:56;22.30;36.20
56268;DHT22;42175;46.930;9.532;2023-04-10T00:30:22;22.30;36.20
56268;DHT22;42175;46.930;9.532;2023-04-10T00:32:47;22.30;36.30
56268;DHT22;42175;46.930;9.532;2023-04-10T00:35:13;22.30;36.30
56268;DHT22;42175;46.930;9.532;2023-04-10T00:37:39;22.30;36.40
56268;DHT22;42175;46.930;9.532;2023-04-10T00:40:05;22.30;36.40
56268;DHT22;42175;46.930;9.532;2023-04-10T00:42:32;22.30;36.40
56268;DHT22;42175;46.930;9.532;2023-04-10T00:44:58;22.30;36.40
56268;DHT22;42175;46.930;9.532;2023-04-10T00:47:25;22.30;36.30
56268;DHT22;42175;46.930;9.532;2023-04-10T00:49:52;22.40;36.40
56268;DHT22;42175;46.930;9.532;2023-04-10T00:52:18;22.30;36.30
56268;DHT22;42175;46.930;9.532;2023-04-10T00:54:44;22.30;36.40
56268;DHT22;42175;46.930;9.532;2023-04-10T00:57:10;22.30;36.30
56268;DHT22;42175;46.930;9.532;2023-04-10T00:59:36;22.30;36.30
56268;DHT22;42175;46.930;9.532;2023-04-10T01:02:03;22.30;36.40
56268;DHT22;42175;46.930;9.532;2023-04-10T01:04:29;22.30;36.30
56268;DHT22;42175;46.930;9.532;2023-04-10T01:13:10;22.30;36.30
56268;DHT22;42175;46.930;9.532;2023-04-10T01:16:17;22.30;36.30
56268;DHT22;42175;46.930;9.532;2023-04-10T01:18:53;22.30;36.40
56268;DHT22;42175;46.930;9.532;2023-04-10T01:21:22;22.30;36.30
56268;DHT22;42175;46.930;9.532;2023-04-10T01:24:06;22.30;36.30
56268;DHT22;42175;46.930;9.532;2023-04-10T01:26:48;22.30;36.30
56268;DHT22;42175;46.930;9.532;2023-04-10T01:29:17;22.30;36.30
56268;DHT22;42175;46.930;9.532;2023-04-10T01:31:53;22.30;36.30
56268;DHT22;42175;46.930;9.532;2023-04-10T01:34:24;22.30;36.30
56268;DHT22;42175;46.930;9.532;2023-04-10T01:36:59;22.20;36.30
56268;DHT22;42175;46.930;9.532;2023-04-10T01:39:27;22.20;36.30
56268;DHT22;42175;46.930;9.532;2023-04-10T01:41:55;22.20;36.30
56268;DHT22;42175;46.930;9.532;2023-04-10T01:44:25;22.20;36.30
56268;DHT22;42175;46.930;9.532;2023-04-10T01:46:53;22.30;36.30
56268;DHT22;42175;46.930;9.532;2023-04-10T01:49:20;22.30;36.30
56268;DHT22;42175;46.930;9.532;2023-04-10T01:51:48;22.30;36.30
56268;DHT22;42175;46.930;9.532;2023-04-10T01:54:16;22.30;36.30
56268;DHT22;42175;46.930;9.532;2023-04-10T01:56:42;22.20;36.30
56268;DHT22;42175;46.930;9.532;2023-04-10T01:59:08;22.20;36.40
56268;DHT22;42175;46.930;9.532;2023-04-10T02:01:34;22.30;36.50
56268;DHT22;42175;46.930;9.532;2023-04-10T02:04:01;22.20;36.40
56268;DHT22;42175;46.930;9.532;2023-04-10T02:09:58;22.30;36.40
56268;DHT22;42175;46.930;9.532;2023-04-10T02:12:36;22.20;36.40
56268;DHT22;42175;46.930;9.532;2023-04-10T02:15:04;22.30;36.40
56268;DHT22;42175;46.930;9.532;2023-04-10T02:17:32;22.20;36.50
56268;DHT22;42175;46.930;9.532;2023-04-10T02:19:59;22.20;36.60
56268;DHT22;42175;46.930;9.532;2023-04-10T02:22:26;22.30;36.60
56268;DHT22;42175;46.930;9.532;2023-04-10T02:24:53;22.30;36.70
56268;DHT22;42175;46.930;9.532;2023-04-10T02:27:33;22.30;36.60
56268;DHT22;42175;46.930;9.532;2023-04-10T02:30:00;22.30;36.60
56268;DHT22;42175;46.930;9.532;2023-04-10T02:32:26;22.20;36.50
56268;DHT22;42175;46.930;9.532;2023-04-10T02:34:52;22.30;36.60
56268;DHT22;42175;46.930;9.532;2023-04-10T02:37:18;22.30;36.60
56268;DHT22;42175;46.930;9.532;2023-04-10T02:39:43;22.20;36.50
56268;DHT22;42175;46.930;9.532;2023-04-10T02:42:09;22.20;36.50
56268;DHT22;42175;46.930;9.532;2023-04-10T02:44:35;22.30;36.50
56268;DHT22;42175;46.930;9.532;2023-04-10T02:47:01;22.20;36.50
56268;DHT22;42175;46.930;9.532;2023-04-10T02:49:26;22.20;36.40
56268;DHT22;42175;46.930;9.532;2023-04-10T02:51:52;22.30;36.50
56268;DHT22;42175;46.930;9.532;2023-04-10T02:54:18;22.20;36.40
56268;DHT22;42175;46.930;9.532;2023-04-10T02:56:43;22.30;36.50
56268;DHT22;42175;46.930;9.532;2023-04-10T02:59:09;22.30;36.40
56268;DHT22;42175;46.930;9.532;2023-04-10T03:01:35;22.30;36.40
56268;DHT22;42175;46.930;9.532;2023-04-10T03:04:00;22.20;36.40
56268;DHT22;42175;46.930;9.532;2023-04-10T03:06:28;22.30;36.50
56268;DHT22;42175;46.930;9.532;2023-04-10T03:08:54;22.30;36.40
56268;DHT22;42175;46.930;9.532;2023-04-10T03:11:20;22.30;36.40
56268;DHT22;42175;46.930;9.532;2023-04-10T03:13:46;22.20;36.30
56268;DHT22;42175;46.930;9.532;2023-04-10T03:16:13;22.20;36.30
56268;DHT22;42175;46.930;9.532;2023-04-10T03:18:39;22.20;36.30
56268;DHT22;42175;46.930;9.532;2023-04-10T03:21:05;22.20;36.90
56268;DHT22;42175;46.930;9.532;2023-04-10T03:23:31;22.20;36.30
56268;DHT22;42175;46.930;9.532;2023-04-10T03:25:56;22.20;36.30
56268;DHT22;42175;46.930;9.532;2023-04-10T03:28:22;22.20;36.40
56268;DHT22;42175;46.930;9.532;2023-04-10T03:30:51;22.20;36.30
56268;DHT22;42175;46.930;9.532;2023-04-10T03:33:16;22.20;36.30
56268;DHT22;42175;46.930;9.532;2023-04-10T03:35:43;22.10;36.30
56268;DHT22;42175;46.930;9.532;2023-04-10T03:38:09;22.20;36.30
56268;DHT22;42175;46.930;9.532;2023-04-10T03:40:35;22.20;36.20
56268;DHT22;42175;46.930;9.532;2023-04-10T03:43:00;22.10;36.20
56268;DHT22;42175;46.930;9.532;2023-04-10T03:45:26;22.20;36.30
56268;DHT22;42175;46.930;9.532;2023-04-10T03:47:52;22.20;36.40
56268;DHT22;42175;46.930;9.532;2023-04-10T03:50:17;22.20;36.30
56268;DHT22;42175;46.930;9.532;2023-04-10T03:52:43;22.20;36.30
56268;DHT22;42175;46.930;9.532;2023-04-10T03:55:09;22.20;36.30
56268;DHT22;42175;46.930;9.532;2023-04-10T03:57:35;22.10;36.20
56268;DHT22;42175;46.930;9.532;2023-04-10T04:00:01;22.20;36.30
56268;DHT22;42175;46.930;9.532;2023-04-10T04:02:28;22.20;36.20
56268;DHT22;42175;46.930;9.532;2023-04-10T04:04:53;22.20;36.20
56268;DHT22;42175;46.930;9.532;2023-04-10T04:07:19;22.10;36.30
56268;DHT22;42175;46.930;9.532;2023-04-10T04:09:45;22.20;36.30
56268;DHT22;42175;46.930;9.532;2023-04-10T04:12:11;22.20;36.40
56268;DHT22;42175;46.930;9.532;2023-04-10T04:14:36;22.20;36.40
56268;DHT22;42175;46.930;9.532;2023-04-10T04:17:02;22.10;36.30
56268;DHT22;42175;46.930;9.532;2023-04-10T04:19:28;22.10;36.30
56268;DHT22;42175;46.930;9.532;2023-04-10T04:21:54;22.10;36.40
56268;DHT22;42175;46.930;9.532;2023-04-10T04:24:20;22.10;36.40
56268;DHT22;42175;46.930;9.532;2023-04-10T04:26:46;22.10;36.40
56268;DHT22;42175;46.930;9.532;2023-04-10T04:29:12;22.10;36.40
56268;DHT22;42175;46.930;9.532;2023-04-10T04:31:37;22.10;36.30
56268;DHT22;42175;46.930;9.532;2023-04-10T04:34:03;22.10;36.30
56268;DHT22;42175;46.930;9.532;2023-04-10T04:36:29;22.10;36.30
56268;DHT22;42175;46.930;9.532;2023-04-10T04:38:55;22.10;36.30
56268;DHT22;42175;46.930;9.532;2023-04-10T04:41:21;22.10;36.30
56268;DHT22;42175;46.930;9.532;2023-04-10T04:43:47;22.10;36.30
56268;DHT22;42175;46.930;9.532;2023-04-10T04:46:13;22.00;36.20
56268;DHT22;42175;46.930;9.532;2023-04-10T04:48:40;22.10;36.20
56268;DHT22;42175;46.930;9.532;2023-04-10T04:51:06;22.10;36.20
56268;DHT22;42175;46.930;9.532;2023-04-10T04:53:32;22.10;36.20
56268;DHT22;42175;46.930;9.532;2023-04-10T04:55:57;22.10;36.20
56268;DHT22;42175;46.930;9.532;2023-04-10T04:58:23;22.10;36.20
56268;DHT22;42175;46.930;9.532;2023-04-10T05:00:51;22.00;36.10
56268;DHT22;42175;46.930;9.532;2023-04-10T05:03:17;22.10;36.20
56268;DHT22;42175;46.930;9.532;2023-04-10T05:05:42;22.10;36.20
56268;DHT22;42175;46.930;9.532;2023-04-10T05:08:08;22.10;36.20
56268;DHT22;42175;46.930;9.532;2023-04-10T05:10:35;22.10;36.20
56268;DHT22;42175;46.930;9.532;2023-04-10T05:13:01;22.10;36.20
56268;DHT22;42175;46.930;9.532;2023-04-10T05:15:26;22.10;36.20
56268;DHT22;42175;46.930;9.532;2023-04-10T05:17:53;22.10;36.20
56268;DHT22;42175;46.930;9.532;2023-04-10T05:20:19;22.10;36.10
56268;DHT22;42175;46.930;9.532;2023-04-10T05:22:47;22.10;36.20
56268;DHT22;42175;46.930;9.532;2023-04-10T05:25:12;22.10;36.20
56268;DHT22;42175;46.930;9.532;2023-04-10T05:27:38;22.10;36.20
56268;DHT22;42175;46.930;9.532;2023-04-10T05:30:04;22.10;36.20
56268;DHT22;42175;46.930;9.532;2023-04-10T05:32:30;22.10;36.20
56268;DHT22;42175;46.930;9.532;2023-04-10T05:34:56;22.10;36.20
56268;DHT22;42175;46.930;9.532;2023-04-10T05:37:21;22.10;36.20
56268;DHT22;42175;46.930;9.532;2023-04-10T05:39:47;22.10;36.10
56268;DHT22;42175;46.930;9.532;2023-04-10T05:42:13;22.10;36.10
56268;DHT22;42175;46.930;9.532;2023-04-10T05:44:38;22.10;36.10
56268;DHT22;42175;46.930;9.532;2023-04-10T05:47:04;22.10;36.10
56268;DHT22;42175;46.930;9.532;2023-04-10T05:49:30;22.10;36.00
56268;DHT22;42175;46.930;9.532;2023-04-10T05:51:56;22.10;36.10
56268;DHT22;42175;46.930;9.532;2023-04-10T05:54:21;22.10;36.10
56268;DHT22;42175;46.930;9.532;2023-04-10T05:56:47;22.10;36.20
56268;DHT22;42175;46.930;9.532;2023-04-10T05:59:13;22.10;36.10
56268;DHT22;42175;46.930;9.532;2023-04-10T06:01:39;22.10;36.20
56268;DHT22;42175;46.930;9.532;2023-04-10T06:04:05;22.20;36.30
56268;DHT22;42175;46.930;9.532;2023-04-10T06:06:31;22.10;36.20
56268;DHT22;42175;46.930;9.532;2023-04-10T06:08:58;22.20;36.30
56268;DHT22;42175;46.930;9.532;2023-04-10T06:11:23;22.20;36.20
56268;DHT22;42175;46.930;9.532;2023-04-10T06:13:49;22.20;36.30
56268;DHT22;42175;46.930;9.532;2023-04-10T06:16:15;22.20;36.30
56268;DHT22;42175;46.930;9.532;2023-04-10T06:18:41;22.20;36.60
56268;DHT22;42175;46.930;9.532;2023-04-10T06:21:07;22.00;32.70
56268;DHT22;42175;46.930;9.532;2023-04-10T06:23:33;21.80;34.40
56268;DHT22;42175;46.930;9.532;2023-04-10T06:26:00;21.90;35.50
56268;DHT22;42175;46.930;9.532;2023-04-10T06:28:26;21.90;36.10
56268;DHT22;42175;46.930;9.532;2023-04-10T06:30:53;22.00;36.40
56268;DHT22;42175;46.930;9.532;2023-04-10T06:33:19;22.00;36.50
56268;DHT22;42175;46.930;9.532;2023-04-10T06:35:45;22.10;36.60
56268;DHT22;42175;46.930;9.532;2023-04-10T06:38:11;22.10;36.70
56268;DHT22;42175;46.930;9.532;2023-04-10T06:40:36;22.10;36.60
56268;DHT22;42175;46.930;9.532;2023-04-10T06:43:02;22.10;36.60
56268;DHT22;42175;46.930;9.532;2023-04-10T06:45:28;22.20;36.50
56268;DHT22;42175;46.930;9.532;2023-04-10T06:47:54;22.20;36.60
56268;DHT22;42175;46.930;9.532;2023-04-10T06:50:19;22.20;36.50
56268;DHT22;42175;46.930;9.532;2023-04-10T06:52:46;22.20;36.40
56268;DHT22;42175;46.930;9.532;2023-04-10T06:55:11;22.20;36.40
56268;DHT22;42175;46.930;9.532;2023-04-10T06:57:38;22.20;37.00
56268;DHT22;42175;46.930;9.532;2023-04-10T07:00:06;22.20;37.10
56268;DHT22;42175;46.930;9.532;2023-04-10T07:02:33;22.20;36.90
56268;DHT22;42175;46.930;9.532;2023-04-10T07:05:00;22.30;36.90
56268;DHT22;42175;46.930;9.532;2023-04-10T07:07:25;22.20;35.30
56268;DHT22;42175;46.930;9.532;2023-04-10T07:09:52;22.10;34.60
56268;DHT22;42175;46.930;9.532;2023-04-10T07:12:18;22.00;34.00
56268;DHT22;42175;46.930;9.532;2023-04-10T07:14:44;21.90;34.10
56268;DHT22;42175;46.930;9.532;2023-04-10T07:17:09;21.80;33.60
56268;DHT22;42175;46.930;9.532;2023-04-10T07:19:35;21.80;34.50
56268;DHT22;42175;46.930;9.532;2023-04-10T07:22:02;21.70;34.20
56268;DHT22;42175;46.930;9.532;2023-04-10T07:24:29;21.70;34.20
56268;DHT22;42175;46.930;9.532;2023-04-10T07:26:55;21.70;34.10
56268;DHT22;42175;46.930;9.532;2023-04-10T07:29:21;21.70;33.80
56268;DHT22;42175;46.930;9.532;2023-04-10T07:31:47;21.60;33.40
56268;DHT22;42175;46.930;9.532;2023-04-10T07:34:13;21.60;33.00
56268;DHT22;42175;46.930;9.532;2023-04-10T07:36:38;21.60;33.60
56268;DHT22;42175;46.930;9.532;2023-04-10T07:39:04;21.60;33.10
56268;DHT22;42175;46.930;9.532;2023-04-10T07:41:30;21.60;32.60
56268;DHT22;42175;46.930;9.532;2023-04-10T07:43:55;21.50;32.90
56268;DHT22;42175;46.930;9.532;2023-04-10T07:46:21;21.50;33.20
56268;DHT22;42175;46.930;9.532;2023-04-10T07:48:47;21.50;33.20
56268;DHT22;42175;46.930;9.532;2023-04-10T07:51:14;21.50;32.40
56268;DHT22;42175;46.930;9.532;2023-04-10T07:53:39;21.50;32.70
56268;DHT22;42175;46.930;9.532;2023-04-10T07:56:06;21.40;32.60
56268;DHT22;42175;46.930;9.532;2023-04-10T07:58:32;21.50;32.30
56268;DHT22;42175;46.930;9.532;2023-04-10T08:00:57;21.50;32.40
56268;DHT22;42175;46.930;9.532;2023-04-10T08:03:24;21.50;32.60
56268;DHT22;42175;46.930;9.532;2023-04-10T08:05:50;21.50;32.70
56268;DHT22;42175;46.930;9.532;2023-04-10T08:08:16;21.50;32.60
56268;DHT22;42175;46.930;9.532;2023-04-10T08:10:41;21.50;32.20
56268;DHT22;42175;46.930;9.532;2023-04-10T08:13:08;21.60;32.10
56268;DHT22;42175;46.930;9.532;2023-04-10T08:15:34;21.50;32.20
56268;DHT22;42175;46.930;9.532;2023-04-10T08:18:00;21.50;31.90
56268;DHT22;42175;46.930;9.532;2023-04-10T08:20:26;21.50;32.40
56268;DHT22;42175;46.930;9.532;2023-04-10T08:22:53;21.50;32.40
56268;DHT22;42175;46.930;9.532;2023-04-10T08:25:19;21.50;32.10
56268;DHT22;42175;46.930;9.532;2023-04-10T08:27:45;21.50;32.00
56268;DHT22;42175;46.930;9.532;2023-04-10T08:30:11;21.60;32.20
56268;DHT22;42175;46.930;9.532;2023-04-10T08:32:37;21.70;33.00
56268;DHT22;42175;46.930;9.532;2023-04-10T08:35:03;21.70;34.40
56268;DHT22;42175;46.930;9.532;2023-04-10T08:37:29;21.80;34.80
56268;DHT22;42175;46.930;9.532;2023-04-10T08:39:55;21.90;35.10
56268;DHT22;42175;46.930;9.532;2023-04-10T08:42:21;21.90;35.10
56268;DHT22;42175;46.930;9.532;2023-04-10T08:44:48;22.00;35.30
56268;DHT22;42175;46.930;9.532;2023-04-10T08:47:14;22.00;35.30
56268;DHT22;42175;46.930;9.532;2023-04-10T08:49:56;22.00;35.50
56268;DHT22;42175;46.930;9.532;2023-04-10T08:52:24;22.00;35.70
56268;DHT22;42175;46.930;9.532;2023-04-10T08:54:53;22.10;35.80
56268;DHT22;42175;46.930;9.532;2023-04-10T08:57:19;22.00;36.00
56268;DHT22;42175;46.930;9.532;2023-04-10T08:59:47;22.00;36.00
56268;DHT22;42175;46.930;9.532;2023-04-10T09:02:13;22.10;36.10
56268;DHT22;42175;46.930;9.532;2023-04-10T09:04:39;22.10;36.20
56268;DHT22;42175;46.930;9.532;2023-04-10T09:07:05;22.10;36.00
56268;DHT22;42175;46.930;9.532;2023-04-10T09:09:31;22.20;36.20
56268;DHT22;42175;46.930;9.532;2023-04-10T09:12:01;22.30;36.30
56268;DHT22;42175;46.930;9.532;2023-04-10T09:14:35;22.20;36.30
56268;DHT22;42175;46.930;9.532;2023-04-10T09:19:39;22.10;36.60
56268;DHT22;42175;46.930;9.532;2023-04-10T09:22:05;22.20;36.60
56268;DHT22;42175;46.930;9.532;2023-04-10T09:24:35;22.20;36.70
56268;DHT22;42175;46.930;9.532;2023-04-10T09:27:01;22.20;36.80
56268;DHT22;42175;46.930;9.532;2023-04-10T09:29:44;22.20;36.70
56268;DHT22;42175;46.930;9.532;2023-04-10T09:32:11;22.30;36.70
56268;DHT22;42175;46.930;9.532;2023-04-10T09:34:53;22.20;36.70
56268;DHT22;42175;46.930;9.532;2023-04-10T09:37:19;22.30;36.60
56268;DHT22;42175;46.930;9.532;2023-04-10T09:39:47;22.40;36.50
56268;DHT22;42175;46.930;9.532;2023-04-10T09:42:12;22.40;36.50
56268;DHT22;42175;46.930;9.532;2023-04-10T09:44:40;22.40;36.40
56268;DHT22;42175;46.930;9.532;2023-04-10T09:52:24;22.40;36.50
56268;DHT22;42175;46.930;9.532;2023-04-10T09:54:52;22.40;36.40
56268;DHT22;42175;46.930;9.532;2023-04-10T09:57:19;22.40;36.50
56268;DHT22;42175;46.930;9.532;2023-04-10T09:59:57;22.50;36.60
56268;DHT22;42175;46.930;9.532;2023-04-10T10:02:25;22.50;36.60
56268;DHT22;42175;46.930;9.532;2023-04-10T10:04:52;22.40;36.40
56268;DHT22;42175;46.930;9.532;2023-04-10T10:07:19;22.50;37.20
56268;DHT22;42175;46.930;9.532;2023-04-10T10:09:47;22.50;36.60
56268;DHT22;42175;46.930;9.532;2023-04-10T10:12:21;22.50;36.60
56268;DHT22;42175;46.930;9.532;2023-04-10T10:17:23;22.40;36.50
56268;DHT22;42175;46.930;9.532;2023-04-10T10:19:56;22.50;36.50
56268;DHT22;42175;46.930;9.532;2023-04-10T10:22:25;22.50;36.50
56268;DHT22;42175;46.930;9.532;2023-04-10T10:24:53;22.50;36.60
56268;DHT22;42175;46.930;9.532;2023-04-10T10:27:22;22.50;36.60
56268;DHT22;42175;46.930;9.532;2023-04-10T10:29:49;22.50;36.60
56268;DHT22;42175;46.930;9.532;2023-04-10T10:32:17;22.50;36.60
56268;DHT22;42175;46.930;9.532;2023-04-10T10:34:44;22.50;36.50
56268;DHT22;42175;46.930;9.532;2023-04-10T10:37:11;22.50;36.50
56268;DHT22;42175;46.930;9.532;2023-04-10T10:45:05;22.50;36.50
56268;DHT22;42175;46.930;9.532;2023-04-10T10:47:32;22.50;36.50
56268;DHT22;42175;46.930;9.532;2023-04-10T10:50:02;22.50;36.60
56268;DHT22;42175;46.930;9.532;2023-04-10T10:52:44;22.60;36.60
56268;DHT22;42175;46.930;9.532;2023-04-10T10:58:05;22.60;36.50
56268;DHT22;42175;46.930;9.532;2023-04-10T11:08:15;22.60;36.40
56268;DHT22;42175;46.930;9.532;2023-04-10T11:13:33;22.60;36.30
56268;DHT22;42175;46.930;9.532;2023-04-10T11:16:00;22.60;36.20
56268;DHT22;42175;46.930;9.532;2023-04-10T11:21:18;22.60;36.70
56268;DHT22;42175;46.930;9.532;2023-04-10T11:26:36;22.60;36.10
56268;DHT22;42175;46.930;9.532;2023-04-10T11:31:34;22.60;35.70
56268;DHT22;42175;46.930;9.532;2023-04-10T11:36:31;22.70;35.90
56268;DHT22;42175;46.930;9.532;2023-04-10T11:38:57;22.70;35.70
56268;DHT22;42175;46.930;9.532;2023-04-10T11:41:30;22.70;35.90
56268;DHT22;42175;46.930;9.532;2023-04-10T11:44:00;22.60;35.70
56268;DHT22;42175;46.930;9.532;2023-04-10T11:46:27;22.70;35.70
56268;DHT22;42175;46.930;9.532;2023-04-10T11:49:01;22.70;35.70
56268;DHT22;42175;46.930;9.532;2023-04-10T11:51:29;22.70;35.60
56268;DHT22;42175;46.930;9.532;2023-04-10T11:56:31;22.70;35.60
56268;DHT22;42175;46.930;9.532;2023-04-10T11:58:57;22.70;35.60
56268;DHT22;42175;46.930;9.532;2023-04-10T12:01:23;22.70;35.60
56268;DHT22;42175;46.930;9.532;2023-04-10T12:03:49;22.70;35.60
56268;DHT22;42175;46.930;9.532;2023-04-10T12:06:16;22.70;35.50
56268;DHT22;42175;46.930;9.532;2023-04-10T12:08:45;22.70;35.50
56268;DHT22;42175;46.930;9.532;2023-04-10T12:11:16;22.70;35.40
56268;DHT22;42175;46.930;9.532;2023-04-10T12:13:41;22.70;35.50
56268;DHT22;42175;46.930;9.532;2023-04-10T12:16:08;22.70;35.40
56268;DHT22;42175;46.930;9.532;2023-04-10T12:18:34;22.70;35.40
56268;DHT22;42175;46.930;9.532;2023-04-10T12:21:00;22.70;35.40
56268;DHT22;42175;46.930;9.532;2023-04-10T12:23:27;22.80;35.50
56268;DHT22;42175;46.930;9.532;2023-04-10T12:26:14;22.80;35.60
56268;DHT22;42175;46.930;9.532;2023-04-10T12:28:42;22.70;35.60
56268;DHT22;42175;46.930;9.532;2023-04-10T12:31:13;22.70;35.60
56268;DHT22;42175;46.930;9.532;2023-04-10T12:33:42;22.70;35.60
56268;DHT22;42175;46.930;9.532;2023-04-10T12:36:19;22.70;35.50
56268;DHT22;42175;46.930;9.532;2023-04-10T12:38:45;22.70;35.60
56268;DHT22;42175;46.930;9.532;2023-04-10T12:41:11;22.70;35.60
56268;DHT22;42175;46.930;9.532;2023-04-10T12:43:39;22.70;35.60
56268;DHT22;42175;46.930;9.532;2023-04-10T12:46:07;22.70;35.60
56268;DHT22;42175;46.930;9.532;2023-04-10T12:48:34;22.70;35.50
56268;DHT22;42175;46.930;9.532;2023-04-10T12:51:01;22.70;35.50
56268;DHT22;42175;46.930;9.532;2023-04-10T12:53:27;22.70;35.50
56268;DHT22;42175;46.930;9.532;2023-04-10T12:56:01;22.80;35.50
56268;DHT22;42175;46.930;9.532;2023-04-10T12:58:28;22.70;35.30
56268;DHT22;42175;46.930;9.532;2023-04-10T13:00:57;22.70;35.30
56268;DHT22;42175;46.930;9.532;2023-04-10T13:03:23;22.80;35.30
56268;DHT22;42175;46.930;9.532;2023-04-10T13:05:49;22.80;35.30
56268;DHT22;42175;46.930;9.532;2023-04-10T13:08:16;22.80;35.30
56268;DHT22;42175;46.930;9.532;2023-04-10T13:10:42;22.80;35.20
56268;DHT22;42175;46.930;9.532;2023-04-10T13:13:09;22.80;35.20
56268;DHT22;42175;46.930;9.532;2023-04-10T13:15:38;22.80;35.30
56268;DHT22;42175;46.930;9.532;2023-04-10T13:18:03;22.80;35.30
56268;DHT22;42175;46.930;9.532;2023-04-10T13:20:39;22.80;35.30
56268;DHT22;42175;46.930;9.532;2023-04-10T13:23:06;22.70;35.20
56268;DHT22;42175;46.930;9.532;2023-04-10T13:25:37;22.80;35.30
56268;DHT22;42175;46.930;9.532;2023-04-10T13:28:07;22.70;35.20
56268;DHT22;42175;46.930;9.532;2023-04-10T13:30:38;22.70;35.30
56268;DHT22;42175;46.930;9.532;2023-04-10T13:33:05;22.80;35.30
56268;DHT22;42175;46.930;9.532;2023-04-10T13:35:30;22.80;35.30
56268;DHT22;42175;46.930;9.532;2023-04-10T13:37:57;22.80;33.60
56268;DHT22;42175;46.930;9.532;2023-04-10T13:40:22;22.70;30.00
56268;DHT22;42175;46.930;9.532;2023-04-10T13:42:48;22.60;29.60
56268;DHT22;42175;46.930;9.532;2023-04-10T13:45:14;22.60;29.10
56268;DHT22;42175;46.930;9.532;2023-04-10T13:47:40;22.60;27.80
56268;DHT22;42175;46.930;9.532;2023-04-10T13:50:06;22.50;28.30
56268;DHT22;42175;46.930;9.532;2023-04-10T13:52:32;22.60;28.30
56268;DHT22;42175;46.930;9.532;2023-04-10T13:54:58;22.50;27.80
56268;DHT22;42175;46.930;9.532;2023-04-10T13:57:23;22.50;28.00
56268;DHT22;42175;46.930;9.532;2023-04-10T13:59:49;22.50;27.60
56268;DHT22;42175;46.930;9.532;2023-04-10T14:02:15;22.50;27.30
56268;DHT22;42175;46.930;9.532;2023-04-10T14:04:40;22.50;27.50
56268;DHT22;42175;46.930;9.532;2023-04-10T14:07:08;22.50;27.30
56268;DHT22;42175;46.930;9.532;2023-04-10T14:09:34;22.40;27.50
56268;DHT22;42175;46.930;9.532;2023-04-10T14:11:59;22.50;27.40
56268;DHT22;42175;46.930;9.532;2023-04-10T14:14:26;22.40;28.40
56268;DHT22;42175;46.930;9.532;2023-04-10T14:16:52;22.50;29.00
56268;DHT22;42175;46.930;9.532;2023-04-10T14:19:18;22.50;30.00
56268;DHT22;42175;46.930;9.532;2023-04-10T14:21:44;22.50;30.40
56268;DHT22;42175;46.930;9.532;2023-04-10T14:24:10;22.60;30.70
56268;DHT22;42175;46.930;9.532;2023-04-10T14:26:36;22.60;31.20
56268;DHT22;42175;46.930;9.532;2023-04-10T14:29:01;22.60;31.20
56268;DHT22;42175;46.930;9.532;2023-04-10T14:31:27;22.60;31.30
56268;DHT22;42175;46.930;9.532;2023-04-10T14:33:53;22.60;31.60
56268;DHT22;42175;46.930;9.532;2023-04-10T14:36:18;22.60;31.60
56268;DHT22;42175;46.930;9.532;2023-04-10T14:38:44;22.70;31.90
56268;DHT22;42175;46.930;9.532;2023-04-10T14:41:10;22.60;31.90
56268;DHT22;42175;46.930;9.532;2023-04-10T14:43:36;22.60;32.10
56268;DHT22;42175;46.930;9.532;2023-04-10T14:46:02;22.70;32.30
56268;DHT22;42175;46.930;9.532;2023-04-10T14:48:28;22.70;32.30
56268;DHT22;42175;46.930;9.532;2023-04-10T14:50:53;22.70;32.40
56268;DHT22;42175;46.930;9.532;2023-04-10T14:53:21;22.70;32.60
56268;DHT22;42175;46.930;9.532;2023-04-10T14:55:47;22.70;32.60
56268;DHT22;42175;46.930;9.532;2023-04-10T14:58:13;22.70;32.70
56268;DHT22;42175;46.930;9.532;2023-04-10T15:00:39;22.70;32.80
56268;DHT22;42175;46.930;9.532;2023-04-10T15:03:05;22.70;32.80
56268;DHT22;42175;46.930;9.532;2023-04-10T15:05:31;22.80;33.00
56268;DHT22;42175;46.930;9.532;2023-04-10T15:07:57;22.80;33.00
56268;DHT22;42175;46.930;9.532;2023-04-10T15:10:22;22.70;33.00
56268;DHT22;42175;46.930;9.532;2023-04-10T15:12:48;22.80;33.10
56268;DHT22;42175;46.930;9.532;2023-04-10T15:15:14;22.80;33.20
56268;DHT22;42175;46.930;9.532;2023-04-10T15:17:39;22.80;33.20
56268;DHT22;42175;46.930;9.532;2023-04-10T15:20:06;22.80;33.30
56268;DHT22;42175;46.930;9.532;2023-04-10T15:22:31;22.80;33.20
56268;DHT22;42175;46.930;9.532;2023-04-10T15:24:58;22.80;33.90
56268;DHT22;42175;46.930;9.532;2023-04-10T15:27:24;22.80;33.30
56268;DHT22;42175;46.930;9.532;2023-04-10T15:29:50;22.80;33.30
56268;DHT22;42175;46.930;9.532;2023-04-10T15:32:15;22.80;33.30
56268;DHT22;42175;46.930;9.532;2023-04-10T15:34:41;22.80;33.30
56268;DHT22;42175;46.930;9.532;2023-04-10T15:37:07;22.80;33.30
56268;DHT22;42175;46.930;9.532;2023-04-10T15:39:32;22.80;33.40
56268;DHT22;42175;46.930;9.532;2023-04-10T15:41:58;22.80;33.40
56268;DHT22;42175;46.930;9.532;2023-04-10T15:44:25;22.80;33.40
56268;DHT22;42175;46.930;9.532;2023-04-10T15:46:51;22.80;33.40
56268;DHT22;42175;46.930;9.532;2023-04-10T15:49:18;22.80;33.40
56268;DHT22;42175;46.930;9.532;2023-04-10T15:51:45;22.90;33.40
56268;DHT22;42175;46.930;9.532;2023-04-10T15:54:11;22.80;33.30
56268;DHT22;42175;46.930;9.532;2023-04-10T15:56:37;22.90;33.40
56268;DHT22;42175;46.930;9.532;2023-04-10T15:59:05;22.90;33.30
56268;DHT22;42175;46.930;9.532;2023-04-10T16:01:31;22.90;32.40
56268;DHT22;42175;46.930;9.532;2023-04-10T16:03:57;22.70;29.70
56268;DHT22;42175;46.930;9.532;2023-04-10T16:06:23;22.60;29.20
56268;DHT22;42175;46.930;9.532;2023-04-10T16:08:51;22.50;28.80
56268;DHT22;42175;46.930;9.532;2023-04-10T16:11:17;22.40;29.20
56268;DHT22;42175;46.930;9.532;2023-04-10T16:13:42;22.30;28.70
56268;DHT22;42175;46.930;9.532;2023-04-10T16:16:16;22.20;28.60
56268;DHT22;42175;46.930;9.532;2023-04-10T16:18:42;22.20;28.50
56268;DHT22;42175;46.930;9.532;2023-04-10T16:21:10;22.10;28.40